Montebello, Canada
Current Conditions -  °F | °C
As of 3:00 PM on Monday 22 Dec 2014 (Local Time) from CYND Reporting Station
Haze Haze  
Wind Chill:   Ceiling: 800
Heat Index: 21°   Visibility: 4mi
Dew Point: 18°   Wind: 14mph
Humidity: 86%   Direction: 70°ENE
Pressure: 30.29"   Gusts: NA
Location:  45.65°N, 74.93°W
Report Text: CYND 222000Z 07012KT 4SM BR OVC008 M06/M08 A3029 RMK SF8 SLP262
Loading
Personal Weather Stations






























Interactive Weather Map New forecast layout! Learn more

10-Day Weather Forecast

Advertisements
Track Severe Weather on mobile